Time;durP1;ratioP1;P1;durP2;ratioP2;P2;SDS_P1;SDS_P2;PMS_P1;PMS_P2;Temp;Humidity;BMP_temperature;BMP_pressure;BME280_temperature;BME280_humidity;BME280_pressure;Samples;Min_cycle;Max_cycle;Signal;HPM_P1;HPM_P2
2022/09/15 00:00:57;;;;;;;6.88;4.90;;;;;;;19.32;90.78;99076.38;5110759;28;20198;-56
2022/09/15 00:03:25;;;;;;;7.20;5.00;;;;;;;19.35;90.63;99076.16;5110589;28;20221;-53
2022/09/15 00:05:53;;;;;;;7.18;5.30;;;;;;;19.21;92.09;99076.31;5110761;28;20191;-53
2022/09/15 00:08:21;;;;;;;5.57;5.00;;;;;;;19.27;92.20;99073.25;5110682;28;20206;-53
2022/09/15 00:10:49;;;;;;;6.00;5.40;;;;;;;19.15;92.06;99053.91;5110777;28;20194;-54
2022/09/15 00:13:17;;;;;;;6.00;5.47;;;;;;;19.15;91.14;99053.91;5110526;28;20662;-56
2022/09/15 00:15:44;;;;;;;5.63;5.10;;;;;;;19.16;92.26;99060.88;5109524;28;20216;-57
2022/09/15 00:18:11;;;;;;;5.63;5.22;;;;;;;19.13;92.61;99070.75;5110090;28;20195;-56
2022/09/15 00:20:42;;;;;;;10.90;5.22;;;;;;;19.17;91.96;99062.53;5110343;28;20200;-57
2022/09/15 00:23:10;;;;;;;8.05;5.55;;;;;;;19.18;91.54;99066.88;5110491;28;20195;-57
2022/09/15 00:25:43;;;;;;;5.35;4.95;;;;;;;19.21;91.05;99061.34;5110456;28;20253;-57
2022/09/15 00:28:10;;;;;;;5.78;5.30;;;;;;;19.26;89.97;99066.31;5110333;28;20561;-57
2022/09/15 00:30:40;;;;;;;5.07;4.68;;;;;;;19.38;88.73;99062.78;5110101;28;20247;-57
2022/09/15 00:33:08;;;;;;;5.50;5.00;;;;;;;19.43;88.64;99060.66;5110132;28;20273;-54
2022/09/15 00:35:38;;;;;;;5.60;4.95;;;;;;;19.45;88.04;99065.81;5110080;28;20222;-53
2022/09/15 00:38:07;;;;;;;4.78;4.38;;;;;;;19.34;88.42;99061.31;5110071;28;20195;-54
2022/09/15 00:40:42;;;;;;;5.13;4.78;;;;;;;19.30;88.56;99057.22;5110104;28;20195;-53
2022/09/15 00:43:10;;;;;;;5.05;4.40;;;;;;;19.33;88.27;99057.00;5109855;28;20188;-53
2022/09/15 00:45:37;;;;;;;6.70;4.30;;;;;;;19.36;87.65;99056.81;5110309;28;20320;-53
2022/09/15 00:48:06;;;;;;;4.88;4.47;;;;;;;19.32;87.52;99055.31;5110051;28;20206;-53
2022/09/15 00:50:34;;;;;;;6.00;4.80;;;;;;;19.26;86.63;99045.25;5110068;28;20638;-53
2022/09/15 00:53:04;;;;;;;6.85;4.57;;;;;;;19.31;86.22;99064.16;5109974;28;20208;-57
2022/09/15 00:55:36;;;;;;;7.75;4.20;;;;;;;19.26;86.85;99049.69;5109867;28;20222;-53
2022/09/15 00:58:05;;;;;;;7.50;4.30;;;;;;;19.27;86.47;99046.94;5110271;28;20654;-54
2022/09/15 01:00:33;;;;;;;4.22;3.83;;;;;;;19.35;86.18;99049.84;5110052;28;20194;-53
2022/09/15 01:03:02;;;;;;;5.35;4.13;;;;;;;19.42;85.68;99048.44;5109938;28;20579;-53
2022/09/15 01:05:32;;;;;;;4.90;4.40;;;;;;;19.38;86.81;99049.63;5109853;28;20194;-53
2022/09/15 01:08:03;;;;;;;5.25;4.20;;;;;;;19.35;86.98;99043.75;5109766;28;20205;-56
2022/09/15 01:10:33;;;;;;;6.13;4.85;;;;;;;19.32;87.03;99039.53;5111623;28;20194;-56
2022/09/15 01:13:02;;;;;;;5.40;4.90;;;;;;;19.27;87.18;99039.03;5114118;28;20662;-56
2022/09/15 01:15:39;;;;;;;5.88;4.55;;;;;;;19.22;87.82;99033.25;5114031;28;20634;-56
2022/09/15 01:18:13;;;;;;;5.20;4.30;;;;;;;19.23;87.60;99032.31;5113955;28;20190;-55
2022/09/15 01:21:07;;;;;;;7.18;4.50;;;;;;;19.31;86.67;99035.22;5113951;28;20582;-55
2022/09/15 01:24:09;;;;;;;4.90;4.38;;;;;;;19.32;86.49;99029.00;5111619;28;20588;-54
2022/09/15 01:26:59;;;;;;;4.68;4.15;;;;;;;19.38;85.80;99036.47;5113977;28;20243;-56
2022/09/15 01:29:50;;;;;;;5.65;4.30;;;;;;;19.31;85.96;99035.22;5113812;28;20286;-57
2022/09/15 01:35:17;;;;;;;4.30;4.00;;;;;;;19.19;86.57;99030.84;5113541;28;20319;-53
2022/09/15 01:37:49;;;;;;;6.10;4.20;;;;;;;18.99;87.34;99005.97;5113850;28;20272;-53
2022/09/15 01:40:21;;;;;;;4.20;3.90;;;;;;;19.12;87.13;99025.19;5113809;27;20195;-52
2022/09/15 01:42:50;;;;;;;6.28;4.05;;;;;;;19.08;87.51;99026.34;5113639;28;20220;-57
2022/09/15 01:45:22;;;;;;;5.97;4.57;;;;;;;19.06;87.44;99033.53;5113484;28;20186;-56
2022/09/15 01:47:54;;;;;;;4.32;4.03;;;;;;;19.09;87.76;99033.28;5113216;28;20681;-53
2022/09/15 01:50:24;;;;;;;6.25;4.63;;;;;;;19.16;87.41;99038.97;5113145;28;20191;-53
2022/09/15 01:52:55;;;;;;;4.68;4.18;;;;;;;19.18;87.37;99045.81;5113224;28;20280;-56
2022/09/15 01:55:26;;;;;;;4.85;4.35;;;;;;;19.15;88.24;99053.91;5113321;28;20789;-57
2022/09/15 01:57:53;;;;;;;4.55;4.15;;;;;;;19.04;89.76;99055.63;5113253;28;20209;-56
2022/09/15 02:00:22;;;;;;;7.97;5.05;;;;;;;18.96;89.67;99048.25;5113111;28;20197;-56
2022/09/15 02:02:53;;;;;;;4.57;4.00;;;;;;;18.94;89.97;99049.34;5113176;28;20236;-53
2022/09/15 02:05:26;;;;;;;6.97;4.60;;;;;;;18.83;90.84;99045.69;5112962;28;20243;-53
2022/09/15 02:08:04;;;;;;;5.90;4.35;;;;;;;18.85;90.74;99046.38;5113028;28;20205;-53
2022/09/15 02:10:38;;;;;;;6.10;4.20;;;;;;;18.90;90.79;99037.34;5113275;28;20218;-53
2022/09/15 02:13:11;;;;;;;4.67;4.37;;;;;;;18.94;90.79;99038.81;5112742;28;20197;-53
2022/09/15 02:15:47;;;;;;;7.43;4.57;;;;;;;18.92;91.58;99036.28;5112771;28;20222;-52
2022/09/15 02:18:17;;;;;;;9.43;4.95;;;;;;;18.87;92.11;99041.03;5112618;28;20681;-53
2022/09/15 02:20:49;;;;;;;9.38;5.55;;;;;;;18.89;92.62;99036.50;5112729;28;20579;-57
2022/09/15 02:23:25;;;;;;;8.52;5.30;;;;;;;18.83;92.76;99035.16;5111399;28;20205;-53
2022/09/15 02:25:58;;;;;;;6.30;5.40;;;;;;;18.80;93.92;99053.78;5112992;28;20429;-53
2022/09/15 02:28:32;;;;;;;8.47;5.67;;;;;;;18.60;96.20;99048.22;5112605;28;20195;-53
2022/09/15 02:31:02;;;;;;;16.90;5.93;;;;;;;18.49;96.57;99047.13;5112797;28;20206;-53
2022/09/15 02:33:34;;;;;;;9.57;6.17;;;;;;;18.48;96.38;99042.81;5112617;28;20229;-56
2022/09/15 02:36:03;;;;;;;9.40;6.30;;;;;;;18.47;96.61;99041.13;5112645;28;20225;-53
2022/09/15 02:38:39;;;;;;;8.70;6.50;;;;;;;18.49;96.58;99046.28;5112747;27;20233;-53
2022/09/15 02:41:06;;;;;;;9.00;6.83;;;;;;;18.44;96.87;99049.22;5112323;28;20300;-55
2022/09/15 02:43:33;;;;;;;11.87;7.77;;;;;;;18.42;96.85;99045.00;5112327;28;20286;-56
2022/09/15 02:46:01;;;;;;;15.03;7.70;;;;;;;18.48;96.06;99052.50;5112368;28;20642;-55
2022/09/15 02:48:28;;;;;;;8.83;7.03;;;;;;;18.46;96.59;99039.47;5112432;28;20574;-56
2022/09/15 02:50:55;;;;;;;8.57;6.97;;;;;;;18.49;96.53;99043.66;5112189;28;20205;-56
2022/09/15 02:53:22;;;;;;;12.18;7.18;;;;;;;18.47;96.61;99035.03;5111961;28;20190;-56
2022/09/15 02:55:49;;;;;;;9.23;6.47;;;;;;;18.45;97.18;99031.69;5112100;28;20226;-53
2022/09/15 02:58:16;;;;;;;8.85;6.80;;;;;;;18.50;96.90;99029.59;5111947;28;20284;-56
2022/09/15 03:00:43;;;;;;;7.73;6.90;;;;;;;18.51;96.75;99033.88;5111835;28;20204;-56
2022/09/15 03:03:12;;;;;;;9.27;6.68;;;;;;;18.55;96.50;99030.09;5111767;28;20252;-56
2022/09/15 03:05:39;;;;;;;8.52;6.40;;;;;;;18.55;96.66;99032.72;5112079;28;20209;-56
2022/09/15 03:08:06;;;;;;;9.50;6.57;;;;;;;18.48;97.30;99031.47;5111766;28;20191;-58
2022/09/15 03:10:33;;;;;;;11.10;6.50;;;;;;;18.40;98.04;99024.09;5112116;28;20658;-58
2022/09/15 03:13:00;;;;;;;7.93;6.40;;;;;;;18.35;96.99;99035.88;5111796;28;20203;-58
2022/09/15 03:15:27;;;;;;;15.70;5.90;;;;;;;18.26;97.84;99037.34;5111489;28;20344;-58
2022/09/15 03:17:55;;;;;;;8.30;6.07;;;;;;;18.18;98.00;99026.50;5111802;28;20655;-52
2022/09/15 03:20:27;;;;;;;15.50;6.83;;;;;;;18.13;98.40;99024.19;5111155;28;20573;-53
2022/09/15 03:22:54;;;;;;;7.77;6.50;;;;;;;18.25;98.71;99037.44;5105298;28;20647;-53
2022/09/15 03:25:22;;;;;;;8.83;6.67;;;;;;;18.31;98.82;99032.59;5110057;28;20202;-53
2022/09/15 03:27:49;;;;;;;9.30;6.67;;;;;;;18.39;98.11;99032.09;5109986;28;20267;-54
2022/09/15 03:30:16;;;;;;;8.53;7.27;;;;;;;18.40;97.69;99025.88;5107242;28;20191;-52
2022/09/15 03:32:43;;;;;;;10.93;6.60;;;;;;;18.43;97.51;99036.19;5109440;28;20194;-53
2022/09/15 03:35:10;;;;;;;8.83;5.83;;;;;;;18.28;99.03;99039.88;5109780;28;20588;-53
2022/09/15 03:37:38;;;;;;;6.83;5.77;;;;;;;18.25;98.97;99037.44;5109573;28;20202;-53
2022/09/15 03:40:07;;;;;;;9.93;6.43;;;;;;;18.27;99.00;99041.66;5109942;28;20191;-53
2022/09/15 03:42:33;;;;;;;12.80;6.50;;;;;;;18.24;99.80;99036.59;5109540;28;20281;-53
2022/09/15 03:45:00;;;;;;;9.27;7.40;;;;;;;18.24;100.00;99038.41;5109913;28;20195;-52
2022/09/15 03:47:27;;;;;;;11.53;7.87;;;;;;;18.30;99.72;99030.94;5109762;28;20649;-53
2022/09/15 03:49:54;;;;;;;9.85;6.65;;;;;;;18.25;100.00;99033.03;5109661;28;20194;-53
2022/09/15 03:52:21;;;;;;;11.10;7.57;;;;;;;18.20;100.00;99042.16;5109954;28;20190;-53
2022/09/15 03:54:50;;;;;;;16.50;7.87;;;;;;;18.22;100.00;99042.91;5109999;28;20601;-53
2022/09/15 03:57:17;;;;;;;11.37;7.87;;;;;;;18.28;100.00;99040.72;5109915;28;20214;-53
2022/09/15 03:59:44;;;;;;;8.73;7.90;;;;;;;18.32;99.81;99036.91;5110562;28;20197;-53
2022/09/15 04:02:11;;;;;;;9.70;7.40;;;;;;;18.40;100.00;99034.59;5110403;28;20206;-53
2022/09/15 04:04:38;;;;;;;17.70;7.50;;;;;;;18.42;100.00;99032.72;5110640;28;20199;-53
2022/09/15 04:07:05;;;;;;;13.27;7.77;;;;;;;18.42;100.00;99029.25;5111095;28;20667;-53
2022/09/15 04:09:32;;;;;;;8.95;6.90;;;;;;;18.49;100.00;99036.63;5110580;28;20689;-53
2022/09/15 04:12:00;;;;;;;15.10;7.95;;;;;;;18.54;99.14;99023.16;5110834;28;20202;-56
2022/09/15 04:14:27;;;;;;;18.25;8.65;;;;;;;18.66;99.21;99037.25;5110289;28;20197;-55
2022/09/15 04:16:54;;;;;;;22.55;8.30;;;;;;;18.39;99.31;99000.56;5110390;28;20221;-56
2022/09/15 04:19:20;;;;;;;15.45;8.18;;;;;;;18.76;98.67;99051.44;5110152;28;20195;-55
2022/09/15 04:21:47;;;;;;;16.55;9.90;;;;;;;18.75;99.02;99049.75;5110853;28;20568;-56
2022/09/15 04:24:14;;;;;;;29.15;13.07;;;;;;;18.71;96.64;99046.53;5109615;28;20252;-55
2022/09/15 04:26:41;;;;;;;32.33;13.25;;;;;;;18.70;96.08;99047.47;5110146;28;20201;-55
2022/09/15 04:29:15;;;;;;;28.02;13.00;;;;;;;18.72;96.21;99053.47;5110329;28;20209;-54
2022/09/15 04:31:42;;;;;;;25.40;11.80;;;;;;;18.67;96.47;99052.94;5108884;28;20614;-54
2022/09/15 04:34:09;;;;;;;32.60;13.90;;;;;;;18.69;96.22;99051.03;5109708;28;20685;-56
2022/09/15 04:36:36;;;;;;;14.15;10.93;;;;;;;18.68;94.67;99065.13;5109830;28;20232;-55
2022/09/15 04:39:05;;;;;;;16.83;10.23;;;;;;;18.65;93.64;99065.34;5110072;28;20194;-55
2022/09/15 04:41:32;;;;;;;21.90;11.07;;;;;;;18.48;94.38;99055.97;5109823;28;20204;-55
2022/09/15 04:43:59;;;;;;;14.10;9.20;;;;;;;18.73;93.31;99076.19;5109110;28;20465;-55
2022/09/15 04:46:28;;;;;;;26.50;11.00;;;;;;;18.74;93.33;99082.25;5108527;28;20645;-55
2022/09/15 04:48:56;;;;;;;17.30;9.13;;;;;;;18.86;92.02;99086.66;5108474;28;20566;-55
2022/09/15 04:51:24;;;;;;;11.95;9.35;;;;;;;19.02;90.41;99086.44;5108775;28;20221;-56
2022/09/15 04:53:51;;;;;;;14.38;8.98;;;;;;;19.16;88.67;99089.81;5108903;28;20285;-52
2022/09/15 04:56:20;;;;;;;13.75;8.57;;;;;;;19.28;87.34;99089.88;5109585;28;20227;-52
2022/09/15 04:58:49;;;;;;;15.80;8.95;;;;;;;19.50;86.07;99090.91;5109866;28;20198;-51
2022/09/15 05:01:18;;;;;;;13.27;8.77;;;;;;;19.58;84.64;99092.97;5109597;28;20196;-52
2022/09/15 05:03:47;;;;;;;8.73;7.82;;;;;;;19.68;84.45;99093.13;5109570;28;20198;-53
2022/09/15 05:06:16;;;;;;;8.95;7.40;;;;;;;20.03;82.12;99086.13;5109601;28;20195;-52
2022/09/15 05:08:46;;;;;;;11.00;8.80;;;;;;;20.58;79.99;99089.91;5109847;28;20247;-52
2022/09/15 05:11:14;;;;;;;13.95;9.07;;;;;;;21.40;75.98;99093.16;5109603;28;20781;-52
2022/09/15 05:13:41;;;;;;;16.65;7.95;;;;;;;22.43;70.31;99074.06;5109915;28;20200;-52
2022/09/15 05:16:11;;;;;;;19.45;9.80;;;;;;;23.77;64.53;99097.63;5109452;28;20590;-55
2022/09/15 05:18:38;;;;;;;19.42;9.32;;;;;;;25.01;60.18;99104.78;5109694;28;20195;-55
2022/09/15 05:21:08;;;;;;;20.35;9.07;;;;;;;26.02;56.06;99102.81;5109698;28;20194;-56
2022/09/15 05:23:36;;;;;;;16.02;8.82;;;;;;;26.68;53.41;99113.03;5109505;28;20247;-56
2022/09/15 05:26:06;;;;;;;12.40;8.63;;;;;;;27.49;50.79;99117.97;5109523;28;20670;-56
2022/09/15 05:28:33;;;;;;;20.08;9.25;;;;;;;28.53;47.97;99115.69;5109401;28;20194;-56
2022/09/15 05:31:00;;;;;;;20.67;9.23;;;;;;;29.38;45.16;99102.63;5109323;28;20260;-56
2022/09/15 05:33:27;;;;;;;14.23;8.40;;;;;;;30.03;43.70;99103.13;5109390;28;20746;-55
2022/09/15 05:35:57;;;;;;;24.48;10.05;;;;;;;30.47;42.20;99103.28;5109231;28;20578;-55
2022/09/15 05:38:26;;;;;;;22.52;9.90;;;;;;;30.29;42.47;99098.25;5109183;28;20206;-56
2022/09/15 05:40:53;;;;;;;23.38;9.98;;;;;;;30.80;41.95;99093.13;5109290;28;20191;-56
2022/09/15 05:43:20;;;;;;;17.50;9.27;;;;;;;30.99;40.98;99089.03;5109327;28;20591;-55
2022/09/15 05:45:54;;;;;;;17.73;8.50;;;;;;;31.58;39.55;99094.38;5109197;28;20191;-56
2022/09/15 05:48:22;;;;;;;19.70;9.48;;;;;;;32.07;38.26;99089.13;5109216;28;20225;-53
2022/09/15 05:50:50;;;;;;;15.18;8.73;;;;;;;32.78;36.71;99092.66;5109161;28;20201;-53
2022/09/15 05:53:17;;;;;;;19.45;8.32;;;;;;;33.71;35.36;99091.28;5109068;28;20191;-53
2022/09/15 05:55:45;;;;;;;15.32;8.40;;;;;;;34.34;33.65;99089.97;5109593;28;20286;-51
2022/09/15 05:58:13;;;;;;;11.82;6.93;;;;;;;33.94;33.42;99093.63;5113106;28;20197;-54
2022/09/15 06:00:41;;;;;;;19.15;8.35;;;;;;;32.93;35.42;99090.69;5113132;28;20224;-53
2022/09/15 06:03:13;;;;;;;11.02;7.15;;;;;;;32.18;36.29;99096.69;5112996;28;20199;-53
2022/09/15 06:05:40;;;;;;;8.98;7.63;;;;;;;31.79;37.14;99085.56;5113011;28;20289;-53
2022/09/15 06:08:07;;;;;;;9.80;6.47;;;;;;;32.03;36.84;99098.59;5113009;28;20191;-53
2022/09/15 06:10:35;;;;;;;7.18;6.28;;;;;;;32.28;36.36;99099.88;5113139;28;20654;-52
2022/09/15 06:13:03;;;;;;;8.23;5.80;;;;;;;32.06;36.18;99093.66;5112780;28;20194;-56
2022/09/15 06:15:31;;;;;;;6.57;5.10;;;;;;;33.04;34.98;99102.75;5112584;28;20198;-56
2022/09/15 06:17:58;;;;;;;8.25;5.20;;;;;;;34.10;33.25;99104.00;5112688;28;20222;-56
2022/09/15 06:20:25;;;;;;;10.18;4.45;;;;;;;34.92;31.67;99103.63;5112519;28;20234;-56
2022/09/15 06:22:54;;;;;;;14.10;5.78;;;;;;;35.42;31.08;99098.53;5112716;28;20689;-57
2022/09/15 06:25:21;;;;;;;14.48;5.90;;;;;;;34.90;31.47;99092.22;5112476;28;20199;-56
2022/09/15 06:27:49;;;;;;;7.68;5.05;;;;;;;35.45;31.46;99081.88;5112696;28;20587;-56
2022/09/15 06:30:18;;;;;;;9.73;4.47;;;;;;;36.02;30.04;99084.50;5112637;28;20205;-57
2022/09/15 06:32:45;;;;;;;9.55;4.40;;;;;;;36.66;29.32;99091.50;5112531;28;20222;-52
2022/09/15 06:35:12;;;;;;;10.43;5.32;;;;;;;37.04;28.57;99090.50;5112325;28;20592;-53
2022/09/15 06:37:39;;;;;;;11.00;4.10;;;;;;;35.71;29.29;99092.56;5112180;28;20222;-53
2022/09/15 06:40:07;;;;;;;7.80;4.53;;;;;;;36.13;29.09;99087.53;5112257;28;20201;-53
2022/09/15 06:42:34;;;;;;;11.07;4.47;;;;;;;37.18;28.03;99094.75;5112263;28;20677;-53
2022/09/15 06:45:01;;;;;;;19.88;5.97;;;;;;;37.52;27.79;99095.16;5111692;28;20281;-53
2022/09/15 06:47:32;;;;;;;13.55;5.32;;;;;;;38.18;26.57;99088.84;5112036;28;20594;-54
2022/09/15 06:49:59;;;;;;;11.75;4.97;;;;;;;38.44;26.79;99089.25;5111607;28;20190;-54
2022/09/15 06:52:27;;;;;;;22.15;5.80;;;;;;;38.17;26.67;99087.19;5112239;28;20682;-54
2022/09/15 06:54:53;;;;;;;10.82;5.97;;;;;;;38.29;26.05;99079.91;5112294;28;20198;-54
2022/09/15 06:57:20;;;;;;;19.33;5.30;;;;;;;38.39;26.32;99075.56;5112222;28;20312;-59
2022/09/15 06:59:47;;;;;;;14.27;4.72;;;;;;;38.48;26.57;99076.06;5112266;28;20688;-54
2022/09/15 07:02:14;;;;;;;5.40;4.47;;;;;;;38.37;26.13;99076.88;5111944;28;20208;-54
2022/09/15 07:04:43;;;;;;;8.82;4.57;;;;;;;38.46;26.89;99083.59;5111942;28;20592;-54
2022/09/15 07:07:10;;;;;;;9.60;5.10;;;;;;;38.67;26.68;99083.03;5111600;28;20198;-54
2022/09/15 07:09:37;;;;;;;19.90;5.25;;;;;;;39.04;25.18;99077.38;5110736;28;20189;-54
2022/09/15 07:12:04;;;;;;;13.30;5.82;;;;;;;38.99;25.78;99063.69;5112239;28;20194;-59
2022/09/15 07:14:31;;;;;;;19.92;5.95;;;;;;;39.72;25.87;99073.88;5112455;28;20251;-59
2022/09/15 07:16:58;;;;;;;17.13;6.05;;;;;;;40.48;24.26;99077.94;5112302;28;20224;-59
2022/09/15 07:19:25;;;;;;;14.30;6.55;;;;;;;40.03;24.80;99075.25;5112808;28;20187;-59
2022/09/15 07:21:53;;;;;;;21.02;6.38;;;;;;;40.49;24.63;99074.97;5112788;28;20285;-59
2022/09/15 07:24:20;;;;;;;22.35;7.40;;;;;;;40.62;24.27;99079.25;5112860;28;20579;-59
2022/09/15 07:26:47;;;;;;;15.07;6.75;;;;;;;41.25;23.36;99078.78;5112546;28;20282;-59
2022/09/15 07:29:14;;;;;;;12.20;6.80;;;;;;;41.32;23.58;99071.22;5113010;28;20190;-58
2022/09/15 07:31:41;;;;;;;14.65;6.57;;;;;;;40.84;24.03;99066.53;5112441;28;20202;-58
2022/09/15 07:34:08;;;;;;;25.65;7.15;;;;;;;41.43;23.19;99064.00;5112610;28;20614;-58
2022/09/15 07:36:35;;;;;;;12.82;6.65;;;;;;;41.89;23.17;99075.41;5112965;28;20198;-58
2022/09/15 07:39:04;;;;;;;17.90;6.57;;;;;;;42.08;23.13;99071.28;5112429;28;20255;-53
2022/09/15 07:41:32;;;;;;;24.38;7.10;;;;;;;43.01;22.09;99077.09;5111159;28;20214;-54
2022/09/15 07:44:00;;;;;;;19.77;6.68;;;;;;;42.80;21.82;99089.00;5111107;28;20686;-54
2022/09/15 07:46:29;;;;;;;19.63;7.75;;;;;;;42.55;22.46;99089.66;5110850;28;20204;-54
2022/09/15 07:48:56;;;;;;;17.67;8.43;;;;;;;41.43;23.52;99093.97;5111213;28;20636;-54
2022/09/15 07:51:24;;;;;;;19.20;7.45;;;;;;;40.75;24.37;99091.72;5110547;28;20198;-54
2022/09/15 07:53:52;;;;;;;14.85;6.57;;;;;;;40.46;24.48;99085.50;5110826;28;20281;-54
2022/09/15 07:56:22;;;;;;;17.83;5.47;;;;;;;40.56;23.78;99077.50;5110906;28;20198;-59
2022/09/15 07:58:50;;;;;;;9.27;4.93;;;;;;;41.35;22.55;99088.97;5111928;28;20222;-58
2022/09/15 08:01:19;;;;;;;15.18;5.00;;;;;;;42.16;22.16;99086.31;5110864;28;20190;-55
2022/09/15 08:03:47;;;;;;;7.10;4.82;;;;;;;42.15;21.62;99074.59;5110637;28;20198;-54
2022/09/15 08:06:15;;;;;;;10.23;5.10;;;;;;;42.30;22.34;99076.63;5111232;28;20252;-54
2022/09/15 08:08:43;;;;;;;8.80;4.82;;;;;;;41.77;22.20;99080.19;5110646;28;20191;-54
2022/09/15 08:11:13;;;;;;;9.38;4.90;;;;;;;40.93;22.66;99084.06;5110697;28;20383;-59
2022/09/15 08:13:41;;;;;;;11.50;5.25;;;;;;;39.28;24.03;99073.50;5112120;28;20579;-59
2022/09/15 08:16:10;;;;;;;15.80;4.85;;;;;;;37.63;25.75;99059.22;5111845;28;20198;-59
2022/09/15 08:18:37;;;;;;;18.70;4.70;;;;;;;35.74;28.22;99048.97;5111017;28;20216;-59
2022/09/15 08:21:06;;;;;;;18.92;4.57;;;;;;;34.65;29.89;99053.47;5109158;28;20194;-59
2022/09/15 08:23:33;;;;;;;18.52;5.10;;;;;;;33.58;31.57;99057.06;5111229;28;20236;-58
2022/09/15 08:26:00;;;;;;;14.65;5.60;;;;;;;33.24;32.88;99060.69;5111120;28;20198;-58
2022/09/15 08:28:27;;;;;;;18.58;6.95;;;;;;;32.63;34.08;99062.34;5111134;28;20187;-58
2022/09/15 08:31:03;;;;;;;18.45;5.43;;;;;;;32.43;34.50;99049.59;5111420;28;20199;-57
2022/09/15 08:33:31;;;;;;;13.20;5.00;;;;;;;32.29;34.98;99050.53;5110652;28;20432;-57
2022/09/15 08:36:01;;;;;;;17.80;5.75;;;;;;;32.15;35.56;99054.09;5110225;28;20208;-53
2022/09/15 08:38:28;;;;;;;15.55;5.18;;;;;;;31.80;36.01;99057.69;5109800;28;20556;-58
2022/09/15 08:40:59;;;;;;;12.57;5.35;;;;;;;31.77;35.80;99052.69;5110302;28;20392;-57
2022/09/15 08:43:29;;;;;;;8.80;5.35;;;;;;;31.45;36.28;99052.13;5109449;28;20193;-58
2022/09/15 08:46:03;;;;;;;16.27;5.15;;;;;;;31.34;36.49;99052.63;5109237;28;20772;-57
2022/09/15 08:48:36;;;;;;;18.67;9.25;;;;;;;31.32;37.37;99038.56;5109532;28;20194;-58
2022/09/15 08:51:10;;;;;;;17.55;5.95;;;;;;;31.54;36.55;99048.31;5109798;28;20281;-57
2022/09/15 08:53:44;;;;;;;16.55;7.50;;;;;;;31.42;36.61;99036.41;5109938;28;20193;-58
2022/09/15 08:56:16;;;;;;;16.95;6.32;;;;;;;31.47;36.59;99039.38;5109939;28;20200;-57
2022/09/15 08:58:44;;;;;;;14.80;5.30;;;;;;;31.48;37.15;99034.84;5110305;28;20680;-57
2022/09/15 09:01:27;;;;;;;15.10;6.20;;;;;;;31.42;37.18;99036.41;5109781;28;20202;-57
2022/09/15 09:04:18;;;;;;;8.55;4.30;;;;;;;31.19;37.29;99035.72;5110109;28;20202;-54
2022/09/15 09:06:54;;;;;;;6.72;4.60;;;;;;;31.01;37.04;99039.59;5107801;28;20195;-53
2022/09/15 09:09:32;;;;;;;16.83;6.75;;;;;;;31.00;37.32;99032.56;5109807;28;20686;-54
2022/09/15 09:12:16;;;;;;;14.40;4.80;;;;;;;31.07;37.05;99027.28;5109830;28;20240;-57
2022/09/15 09:14:59;;;;;;;12.75;6.65;;;;;;;31.13;37.13;99023.06;5109813;28;20198;-57
2022/09/15 09:17:48;;;;;;;11.25;5.00;;;;;;;30.95;37.29;98986.72;5109694;28;20218;-58
2022/09/15 09:20:30;;;;;;;12.50;4.57;;;;;;;31.18;37.42;99012.59;5109639;28;20680;-57
2022/09/15 09:22:59;;;;;;;32.28;18.10;;;;;;;31.45;37.13;99009.22;5109806;28;20241;-58
2022/09/15 09:25:26;;;;;;;16.88;5.75;;;;;;;31.69;36.28;99006.19;5109903;28;20199;-58
2022/09/15 09:27:53;;;;;;;8.20;4.40;;;;;;;31.87;35.06;99004.91;5109530;28;20209;-57
2022/09/15 09:30:22;;;;;;;19.85;9.40;;;;;;;32.07;36.30;99012.09;5109438;28;20570;-57
2022/09/15 09:33:09;;;;;;;7.85;5.32;;;;;;;32.00;35.85;98988.91;5113486;28;20729;-57
2022/09/15 09:35:43;;;;;;;5.72;4.78;;;;;;;32.00;36.45;98995.09;5113903;28;20581;-57
2022/09/15 09:38:11;;;;;;;8.65;4.95;;;;;;;31.95;35.80;98994.00;5113503;28;20217;-57
2022/09/15 09:40:40;;;;;;;8.70;3.80;;;;;;;31.93;35.27;98988.03;5113363;28;20199;-57
2022/09/15 09:43:07;;;;;;;6.13;3.90;;;;;;;32.04;34.90;98988.34;5113458;28;20666;-53
2022/09/15 09:45:34;;;;;;;6.15;5.43;;;;;;;32.19;35.05;98982.06;5113332;28;20190;-52
2022/09/15 09:48:11;;;;;;;4.57;3.50;;;;;;;32.25;34.12;98981.28;5113683;28;20233;-53
2022/09/15 09:50:43;;;;;;;8.50;4.78;;;;;;;32.22;34.47;98976.31;5113293;28;20194;-52
2022/09/15 09:53:25;;;;;;;8.52;3.70;;;;;;;32.16;35.05;98972.53;5113309;28;20191;-57
2022/09/15 09:55:54;;;;;;;11.00;3.55;;;;;;;32.16;34.67;98972.53;5113223;28;20202;-58
2022/09/15 09:58:24;;;;;;;8.00;5.03;;;;;;;32.24;34.34;98972.41;5112994;28;20222;-57
2022/09/15 10:00:51;;;;;;;3.83;3.53;;;;;;;32.00;34.69;98962.91;5113237;28;20217;-58
2022/09/15 10:03:20;;;;;;;10.18;5.65;;;;;;;31.94;34.29;98954.81;5113295;28;20313;-57
2022/09/15 10:06:03;;;;;;;6.43;3.47;;;;;;;32.05;34.42;98952.41;5112952;28;20190;-58
2022/09/15 10:08:30;;;;;;;10.30;3.70;;;;;;;32.07;34.70;98942.28;5113263;28;20194;-53
2022/09/15 10:11:05;;;;;;;4.88;3.25;;;;;;;32.10;34.86;98949.13;5113142;28;20511;-53
2022/09/15 10:13:35;;;;;;;5.95;4.20;;;;;;;32.16;34.74;98945.69;5112923;28;20198;-52
2022/09/15 10:16:05;;;;;;;6.22;4.18;;;;;;;32.14;34.91;98931.59;5113085;28;20202;-53
2022/09/15 10:18:35;;;;;;;8.55;3.35;;;;;;;32.21;34.62;98937.88;5112756;28;20709;-52
2022/09/15 10:21:05;;;;;;;7.03;3.92;;;;;;;32.20;34.73;98928.16;5113185;28;20670;-54
2022/09/15 10:23:33;;;;;;;7.47;4.13;;;;;;;32.17;34.65;98936.56;5109227;28;20204;-53
2022/09/15 10:26:19;;;;;;;11.88;3.92;;;;;;;32.10;34.52;98930.34;5101127;28;20585;-53
2022/09/15 10:29:15;;;;;;;4.07;3.70;;;;;;;32.17;33.69;98922.34;5092815;28;20187;-53
2022/09/15 10:31:42;;;;;;;6.10;2.92;;;;;;;32.30;34.30;98911.69;5092262;28;20281;-53
2022/09/15 10:34:27;;;;;;;7.63;4.03;;;;;;;32.27;34.15;98910.25;5092069;28;20263;-53
2022/09/15 10:37:06;;;;;;;7.63;3.45;;;;;;;32.22;33.58;98909.16;5091659;28;20710;-52
2022/09/15 10:39:48;;;;;;;6.70;3.33;;;;;;;32.27;34.55;98906.72;5092193;28;20295;-53
2022/09/15 10:42:25;;;;;;;5.38;3.45;;;;;;;32.23;34.79;98906.28;5091438;28;20751;-53
2022/09/15 10:45:03;;;;;;;6.25;3.20;;;;;;;32.18;34.75;98900.66;5091044;28;20282;-53
2022/09/15 10:47:42;;;;;;;8.30;3.35;;;;;;;32.15;35.38;98909.09;5109908;28;20191;-53
2022/09/15 10:50:16;;;;;;;3.85;3.53;;;;;;;32.19;35.09;98920.28;5109164;28;20198;-51
2022/09/15 10:52:57;;;;;;;4.95;3.38;;;;;;;32.05;34.95;98900.56;5109300;28;20201;-53
2022/09/15 10:55:40;;;;;;;10.00;3.85;;;;;;;32.09;34.48;98889.22;5112107;28;20191;-52
2022/09/15 10:58:23;;;;;;;11.05;4.75;;;;;;;32.39;34.27;98895.19;5111414;28;20655;-53
2022/09/15 11:01:01;;;;;;;11.88;6.80;;;;;;;32.49;33.95;98888.66;5109951;28;20240;-53
2022/09/15 11:04:07;;;;;;;7.75;5.93;;;;;;;32.49;33.51;98888.66;5108937;28;20186;-53
2022/09/15 11:06:45;;;;;;;10.77;4.18;;;;;;;32.29;34.00;98883.16;5067574;28;20198;-52
2022/09/15 11:09:22;;;;;;;11.38;3.85;;;;;;;32.23;34.48;98879.44;5110107;28;20197;-52
2022/09/15 11:12:02;;;;;;;11.00;4.18;;;;;;;32.22;33.53;98880.44;5109594;28;20206;-51
2022/09/15 11:14:43;;;;;;;9.82;3.95;;;;;;;32.12;33.32;98866.53;5109488;28;20690;-52
2022/09/15 11:17:26;;;;;;;12.38;4.55;;;;;;;32.22;33.21;98864.34;5109605;28;20218;-53
2022/09/15 11:20:14;;;;;;;10.65;4.28;;;;;;;32.35;32.73;98866.28;5110136;28;20698;-53
2022/09/15 11:22:47;;;;;;;6.85;3.47;;;;;;;32.54;32.82;98860.16;5108200;28;20187;-53
2022/09/15 11:25:19;;;;;;;10.75;4.63;;;;;;;32.48;32.88;98850.22;5110964;28;20225;-52
2022/09/15 11:27:52;;;;;;;10.10;3.95;;;;;;;32.36;32.61;98828.47;5109140;28;20581;-53
2022/09/15 11:30:21;;;;;;;9.13;3.92;;;;;;;32.58;32.25;98861.41;5111092;28;20684;-52
2022/09/15 11:32:55;;;;;;;10.43;3.70;;;;;;;32.75;31.74;98859.22;5110954;28;20226;-52
2022/09/15 11:35:33;;;;;;;6.72;3.58;;;;;;;32.77;31.45;98857.97;5107942;28;20191;-52
2022/09/15 11:38:11;;;;;;;8.45;4.05;;;;;;;32.81;31.54;98853.88;5110806;28;20708;-52
2022/09/15 11:40:46;;;;;;;9.13;3.92;;;;;;;32.93;31.64;98845.22;5110984;28;20285;-53
2022/09/15 11:43:18;;;;;;;7.57;4.30;;;;;;;33.03;31.87;98837.56;5110763;28;20704;-52
2022/09/15 11:45:50;;;;;;;8.75;3.83;;;;;;;33.08;31.31;98846.66;5110956;28;20190;-52
2022/09/15 11:48:24;;;;;;;15.10;4.40;;;;;;;32.96;32.34;98834.88;5111131;28;20217;-52